sensor_id;sensor_type;location;lat;lon;timestamp;P1;durP1;ratioP1;P2;durP2;ratioP2
18376;SDS011;9315;52.624;13.544;2023-03-01T00:01:45;27.73;;;13.90;;
18376;SDS011;9315;52.624;13.544;2023-03-01T00:04:13;29.27;;;13.87;;
18376;SDS011;9315;52.624;13.544;2023-03-01T00:06:44;38.37;;;14.30;;
18376;SDS011;9315;52.624;13.544;2023-03-01T00:09:14;32.97;;;14.00;;
18376;SDS011;9315;52.624;13.544;2023-03-01T00:11:43;32.90;;;14.03;;
18376;SDS011;9315;52.624;13.544;2023-03-01T00:14:14;40.93;;;14.77;;
18376;SDS011;9315;52.624;13.544;2023-03-01T00:16:46;32.47;;;14.03;;
18376;SDS011;9315;52.624;13.544;2023-03-01T00:19:15;33.00;;;13.83;;
18376;SDS011;9315;52.624;13.544;2023-03-01T00:21:46;35.90;;;15.37;;
18376;SDS011;9315;52.624;13.544;2023-03-01T00:24:15;39.43;;;15.80;;
18376;SDS011;9315;52.624;13.544;2023-03-01T00:26:43;29.20;;;12.83;;
18376;SDS011;9315;52.624;13.544;2023-03-01T00:29:11;22.70;;;11.67;;
18376;SDS011;9315;52.624;13.544;2023-03-01T00:31:39;30.17;;;13.63;;
18376;SDS011;9315;52.624;13.544;2023-03-01T00:34:07;23.93;;;11.07;;
18376;SDS011;9315;52.624;13.544;2023-03-01T00:36:36;29.57;;;12.93;;
18376;SDS011;9315;52.624;13.544;2023-03-01T00:39:05;33.83;;;14.97;;
18376;SDS011;9315;52.624;13.544;2023-03-01T00:41:41;30.77;;;13.80;;
18376;SDS011;9315;52.624;13.544;2023-03-01T00:44:09;35.47;;;15.60;;
18376;SDS011;9315;52.624;13.544;2023-03-01T00:46:38;29.33;;;13.80;;
18376;SDS011;9315;52.624;13.544;2023-03-01T00:49:06;32.10;;;14.83;;
18376;SDS011;9315;52.624;13.544;2023-03-01T00:51:34;39.20;;;14.57;;
18376;SDS011;9315;52.624;13.544;2023-03-01T00:54:02;33.73;;;15.53;;
18376;SDS011;9315;52.624;13.544;2023-03-01T00:56:30;36.00;;;15.10;;
18376;SDS011;9315;52.624;13.544;2023-03-01T00:58:59;31.77;;;15.03;;
18376;SDS011;9315;52.624;13.544;2023-03-01T01:01:28;31.00;;;14.00;;
18376;SDS011;9315;52.624;13.544;2023-03-01T01:04:16;30.83;;;14.17;;
18376;SDS011;9315;52.624;13.544;2023-03-01T01:06:45;31.03;;;13.00;;
18376;SDS011;9315;52.624;13.544;2023-03-01T01:09:15;27.47;;;12.47;;
18376;SDS011;9315;52.624;13.544;2023-03-01T01:11:49;24.53;;;12.07;;
18376;SDS011;9315;52.624;13.544;2023-03-01T01:14:18;28.13;;;12.87;;
18376;SDS011;9315;52.624;13.544;2023-03-01T01:16:47;28.17;;;11.07;;
18376;SDS011;9315;52.624;13.544;2023-03-01T01:19:15;24.27;;;11.90;;
18376;SDS011;9315;52.624;13.544;2023-03-01T01:21:43;22.00;;;10.73;;
18376;SDS011;9315;52.624;13.544;2023-03-01T01:24:11;27.30;;;11.20;;
18376;SDS011;9315;52.624;13.544;2023-03-01T01:26:39;23.90;;;9.70;;
18376;SDS011;9315;52.624;13.544;2023-03-01T01:29:09;24.13;;;9.70;;
18376;SDS011;9315;52.624;13.544;2023-03-01T01:31:38;21.60;;;9.57;;
18376;SDS011;9315;52.624;13.544;2023-03-01T01:34:11;23.47;;;10.43;;
18376;SDS011;9315;52.624;13.544;2023-03-01T01:36:48;23.37;;;9.53;;
18376;SDS011;9315;52.624;13.544;2023-03-01T01:39:23;23.00;;;9.87;;
18376;SDS011;9315;52.624;13.544;2023-03-01T01:41:51;20.27;;;9.70;;
18376;SDS011;9315;52.624;13.544;2023-03-01T01:44:26;20.70;;;10.10;;
18376;SDS011;9315;52.624;13.544;2023-03-01T01:47:03;22.00;;;9.43;;
18376;SDS011;9315;52.624;13.544;2023-03-01T01:49:42;23.80;;;10.60;;
18376;SDS011;9315;52.624;13.544;2023-03-01T01:52:29;26.80;;;11.10;;
18376;SDS011;9315;52.624;13.544;2023-03-01T01:55:05;21.47;;;10.23;;
18376;SDS011;9315;52.624;13.544;2023-03-01T01:57:42;22.40;;;10.53;;
18376;SDS011;9315;52.624;13.544;2023-03-01T02:00:17;20.07;;;8.87;;
18376;SDS011;9315;52.624;13.544;2023-03-01T02:03:03;19.70;;;9.77;;
18376;SDS011;9315;52.624;13.544;2023-03-01T02:05:59;16.77;;;8.40;;
18376;SDS011;9315;52.624;13.544;2023-03-01T02:08:46;19.13;;;9.43;;
18376;SDS011;9315;52.624;13.544;2023-03-01T02:11:19;20.67;;;10.27;;
18376;SDS011;9315;52.624;13.544;2023-03-01T02:13:47;25.10;;;10.47;;
18376;SDS011;9315;52.624;13.544;2023-03-01T02:16:16;23.43;;;10.03;;
18376;SDS011;9315;52.624;13.544;2023-03-01T02:18:47;24.63;;;10.60;;
18376;SDS011;9315;52.624;13.544;2023-03-01T02:27:26;19.20;;;9.03;;
18376;SDS011;9315;52.624;13.544;2023-03-01T02:30:20;23.63;;;10.37;;
18376;SDS011;9315;52.624;13.544;2023-03-01T02:32:53;24.03;;;10.57;;
18376;SDS011;9315;52.624;13.544;2023-03-01T02:35:34;24.10;;;9.83;;
18376;SDS011;9315;52.624;13.544;2023-03-01T02:38:06;19.50;;;9.70;;
18376;SDS011;9315;52.624;13.544;2023-03-01T02:40:36;21.63;;;9.83;;
18376;SDS011;9315;52.624;13.544;2023-03-01T02:43:06;25.20;;;11.13;;
18376;SDS011;9315;52.624;13.544;2023-03-01T02:45:37;19.90;;;9.80;;
18376;SDS011;9315;52.624;13.544;2023-03-01T02:48:09;17.97;;;9.13;;
18376;SDS011;9315;52.624;13.544;2023-03-01T02:56:24;23.57;;;9.37;;
18376;SDS011;9315;52.624;13.544;2023-03-01T02:58:53;19.00;;;9.47;;
18376;SDS011;9315;52.624;13.544;2023-03-01T03:01:21;20.80;;;8.47;;
18376;SDS011;9315;52.624;13.544;2023-03-01T03:03:49;18.87;;;8.80;;
18376;SDS011;9315;52.624;13.544;2023-03-01T03:06:17;17.70;;;8.93;;
18376;SDS011;9315;52.624;13.544;2023-03-01T03:08:45;22.00;;;9.40;;
18376;SDS011;9315;52.624;13.544;2023-03-01T03:11:13;18.90;;;8.70;;
18376;SDS011;9315;52.624;13.544;2023-03-01T03:13:41;17.80;;;8.60;;
18376;SDS011;9315;52.624;13.544;2023-03-01T03:16:15;16.70;;;8.90;;
18376;SDS011;9315;52.624;13.544;2023-03-01T03:18:43;19.83;;;9.17;;
18376;SDS011;9315;52.624;13.544;2023-03-01T03:21:11;20.63;;;9.07;;
18376;SDS011;9315;52.624;13.544;2023-03-01T03:23:40;18.57;;;8.87;;
18376;SDS011;9315;52.624;13.544;2023-03-01T03:26:08;16.13;;;8.33;;
18376;SDS011;9315;52.624;13.544;2023-03-01T03:28:40;16.80;;;8.27;;
18376;SDS011;9315;52.624;13.544;2023-03-01T03:31:08;18.57;;;8.73;;
18376;SDS011;9315;52.624;13.544;2023-03-01T03:33:36;18.87;;;9.43;;
18376;SDS011;9315;52.624;13.544;2023-03-01T03:36:04;15.40;;;8.27;;
18376;SDS011;9315;52.624;13.544;2023-03-01T03:38:33;17.23;;;9.30;;
18376;SDS011;9315;52.624;13.544;2023-03-01T03:41:05;19.47;;;9.20;;
18376;SDS011;9315;52.624;13.544;2023-03-01T03:43:36;21.20;;;8.97;;
18376;SDS011;9315;52.624;13.544;2023-03-01T03:46:06;22.47;;;9.20;;
18376;SDS011;9315;52.624;13.544;2023-03-01T03:48:42;22.03;;;9.77;;
18376;SDS011;9315;52.624;13.544;2023-03-01T03:51:15;17.27;;;9.33;;
18376;SDS011;9315;52.624;13.544;2023-03-01T03:53:45;16.70;;;8.83;;
18376;SDS011;9315;52.624;13.544;2023-03-01T03:56:13;20.13;;;8.63;;
18376;SDS011;9315;52.624;13.544;2023-03-01T03:58:41;19.33;;;8.57;;
18376;SDS011;9315;52.624;13.544;2023-03-01T04:01:09;15.03;;;7.50;;
18376;SDS011;9315;52.624;13.544;2023-03-01T04:03:37;17.90;;;7.63;;
18376;SDS011;9315;52.624;13.544;2023-03-01T04:06:05;15.67;;;7.90;;
18376;SDS011;9315;52.624;13.544;2023-03-01T04:08:33;16.70;;;8.43;;
18376;SDS011;9315;52.624;13.544;2023-03-01T04:11:02;14.90;;;7.97;;
18376;SDS011;9315;52.624;13.544;2023-03-01T04:13:51;14.40;;;7.63;;
18376;SDS011;9315;52.624;13.544;2023-03-01T04:16:22;16.60;;;7.60;;
18376;SDS011;9315;52.624;13.544;2023-03-01T04:18:50;16.10;;;8.10;;
18376;SDS011;9315;52.624;13.544;2023-03-01T04:21:20;14.77;;;7.70;;
18376;SDS011;9315;52.624;13.544;2023-03-01T04:23:51;16.80;;;8.00;;
18376;SDS011;9315;52.624;13.544;2023-03-01T04:26:19;17.10;;;8.27;;
18376;SDS011;9315;52.624;13.544;2023-03-01T04:28:48;17.90;;;8.10;;
18376;SDS011;9315;52.624;13.544;2023-03-01T04:31:18;16.73;;;8.90;;
18376;SDS011;9315;52.624;13.544;2023-03-01T04:33:50;19.37;;;8.50;;
18376;SDS011;9315;52.624;13.544;2023-03-01T04:36:23;17.53;;;8.57;;
18376;SDS011;9315;52.624;13.544;2023-03-01T04:38:55;18.13;;;9.77;;
18376;SDS011;9315;52.624;13.544;2023-03-01T04:41:24;19.83;;;9.40;;
18376;SDS011;9315;52.624;13.544;2023-03-01T04:43:52;19.70;;;9.07;;
18376;SDS011;9315;52.624;13.544;2023-03-01T04:46:21;18.30;;;8.80;;
18376;SDS011;9315;52.624;13.544;2023-03-01T04:48:49;19.20;;;8.57;;
18376;SDS011;9315;52.624;13.544;2023-03-01T04:51:17;21.37;;;8.70;;
18376;SDS011;9315;52.624;13.544;2023-03-01T04:53:45;20.77;;;8.37;;
18376;SDS011;9315;52.624;13.544;2023-03-01T04:56:14;14.73;;;7.07;;
18376;SDS011;9315;52.624;13.544;2023-03-01T04:58:45;19.60;;;8.47;;
18376;SDS011;9315;52.624;13.544;2023-03-01T05:01:18;18.10;;;8.30;;
18376;SDS011;9315;52.624;13.544;2023-03-01T05:03:48;14.23;;;7.33;;
18376;SDS011;9315;52.624;13.544;2023-03-01T05:06:19;17.03;;;7.70;;
18376;SDS011;9315;52.624;13.544;2023-03-01T05:08:48;13.13;;;7.43;;
18376;SDS011;9315;52.624;13.544;2023-03-01T05:11:16;14.23;;;7.50;;
18376;SDS011;9315;52.624;13.544;2023-03-01T05:13:44;16.37;;;7.73;;
18376;SDS011;9315;52.624;13.544;2023-03-01T05:16:12;16.87;;;7.20;;
18376;SDS011;9315;52.624;13.544;2023-03-01T05:18:43;17.00;;;8.07;;
18376;SDS011;9315;52.624;13.544;2023-03-01T05:21:13;15.33;;;8.60;;
18376;SDS011;9315;52.624;13.544;2023-03-01T05:23:45;15.87;;;8.30;;
18376;SDS011;9315;52.624;13.544;2023-03-01T05:26:14;20.43;;;9.23;;
18376;SDS011;9315;52.624;13.544;2023-03-01T05:28:55;16.97;;;8.10;;
18376;SDS011;9315;52.624;13.544;2023-03-01T05:31:27;15.17;;;8.50;;
18376;SDS011;9315;52.624;13.544;2023-03-01T05:33:58;19.27;;;8.77;;
18376;SDS011;9315;52.624;13.544;2023-03-01T05:36:26;17.50;;;8.23;;
18376;SDS011;9315;52.624;13.544;2023-03-01T05:38:54;20.33;;;7.83;;
18376;SDS011;9315;52.624;13.544;2023-03-01T05:41:22;19.30;;;9.03;;
18376;SDS011;9315;52.624;13.544;2023-03-01T05:43:50;21.30;;;8.30;;
18376;SDS011;9315;52.624;13.544;2023-03-01T05:46:18;18.17;;;7.83;;
18376;SDS011;9315;52.624;13.544;2023-03-01T05:48:47;18.87;;;8.47;;
18376;SDS011;9315;52.624;13.544;2023-03-01T05:51:15;21.10;;;9.73;;
18376;SDS011;9315;52.624;13.544;2023-03-01T05:53:44;19.50;;;8.30;;
18376;SDS011;9315;52.624;13.544;2023-03-01T05:56:12;14.53;;;7.63;;
18376;SDS011;9315;52.624;13.544;2023-03-01T05:58:40;19.37;;;7.87;;
18376;SDS011;9315;52.624;13.544;2023-03-01T06:01:11;18.07;;;8.00;;
18376;SDS011;9315;52.624;13.544;2023-03-01T06:03:43;21.07;;;8.37;;
18376;SDS011;9315;52.624;13.544;2023-03-01T06:06:11;16.47;;;7.87;;
18376;SDS011;9315;52.624;13.544;2023-03-01T06:08:39;16.30;;;7.70;;
18376;SDS011;9315;52.624;13.544;2023-03-01T06:11:07;16.27;;;7.73;;
18376;SDS011;9315;52.624;13.544;2023-03-01T06:13:36;14.87;;;8.10;;
18376;SDS011;9315;52.624;13.544;2023-03-01T06:16:05;18.33;;;8.50;;
18376;SDS011;9315;52.624;13.544;2023-03-01T06:18:34;22.20;;;9.70;;
18376;SDS011;9315;52.624;13.544;2023-03-01T06:21:04;20.77;;;8.40;;
18376;SDS011;9315;52.624;13.544;2023-03-01T06:23:34;15.87;;;7.07;;
18376;SDS011;9315;52.624;13.544;2023-03-01T06:26:06;20.03;;;9.63;;
18376;SDS011;9315;52.624;13.544;2023-03-01T06:28:36;16.13;;;7.40;;
18376;SDS011;9315;52.624;13.544;2023-03-01T06:31:04;19.97;;;9.37;;
18376;SDS011;9315;52.624;13.544;2023-03-01T06:33:35;17.47;;;8.33;;
18376;SDS011;9315;52.624;13.544;2023-03-01T06:36:03;16.00;;;8.00;;
18376;SDS011;9315;52.624;13.544;2023-03-01T06:38:32;17.43;;;8.53;;
18376;SDS011;9315;52.624;13.544;2023-03-01T06:41:00;19.30;;;8.47;;
18376;SDS011;9315;52.624;13.544;2023-03-01T06:43:28;21.03;;;9.40;;
18376;SDS011;9315;52.624;13.544;2023-03-01T06:45:57;20.37;;;9.20;;
18376;SDS011;9315;52.624;13.544;2023-03-01T06:48:24;23.43;;;10.00;;
18376;SDS011;9315;52.624;13.544;2023-03-01T06:50:53;26.47;;;10.63;;
18376;SDS011;9315;52.624;13.544;2023-03-01T06:53:24;21.37;;;10.13;;
18376;SDS011;9315;52.624;13.544;2023-03-01T06:55:54;22.33;;;10.53;;
18376;SDS011;9315;52.624;13.544;2023-03-01T06:58:26;19.00;;;7.87;;
18376;SDS011;9315;52.624;13.544;2023-03-01T07:00:54;23.43;;;10.67;;
18376;SDS011;9315;52.624;13.544;2023-03-01T07:03:22;24.80;;;10.80;;
18376;SDS011;9315;52.624;13.544;2023-03-01T07:05:53;23.40;;;9.50;;
18376;SDS011;9315;52.624;13.544;2023-03-01T07:08:21;20.80;;;9.70;;
18376;SDS011;9315;52.624;13.544;2023-03-01T07:10:54;20.37;;;9.77;;
18376;SDS011;9315;52.624;13.544;2023-03-01T07:13:26;18.57;;;8.60;;
18376;SDS011;9315;52.624;13.544;2023-03-01T07:15:54;17.30;;;9.13;;
18376;SDS011;9315;52.624;13.544;2023-03-01T07:18:22;20.00;;;9.07;;
18376;SDS011;9315;52.624;13.544;2023-03-01T07:20:51;17.57;;;8.77;;
18376;SDS011;9315;52.624;13.544;2023-03-01T07:23:19;17.47;;;9.03;;
18376;SDS011;9315;52.624;13.544;2023-03-01T07:25:51;17.23;;;8.53;;
18376;SDS011;9315;52.624;13.544;2023-03-01T07:28:23;19.10;;;8.37;;
18376;SDS011;9315;52.624;13.544;2023-03-01T07:30:52;14.70;;;7.53;;
18376;SDS011;9315;52.624;13.544;2023-03-01T07:33:20;14.60;;;7.43;;
18376;SDS011;9315;52.624;13.544;2023-03-01T07:35:55;16.10;;;8.13;;
18376;SDS011;9315;52.624;13.544;2023-03-01T07:38:30;14.57;;;7.43;;
18376;SDS011;9315;52.624;13.544;2023-03-01T07:40:59;17.87;;;7.90;;
18376;SDS011;9315;52.624;13.544;2023-03-01T07:43:30;14.73;;;7.83;;
18376;SDS011;9315;52.624;13.544;2023-03-01T07:45:59;14.63;;;7.37;;
18376;SDS011;9315;52.624;13.544;2023-03-01T07:48:29;14.37;;;8.00;;
18376;SDS011;9315;52.624;13.544;2023-03-01T07:51:02;17.97;;;8.00;;
18376;SDS011;9315;52.624;13.544;2023-03-01T07:53:33;19.07;;;8.70;;
18376;SDS011;9315;52.624;13.544;2023-03-01T07:56:02;15.87;;;9.20;;
18376;SDS011;9315;52.624;13.544;2023-03-01T07:58:38;19.67;;;9.00;;
18376;SDS011;9315;52.624;13.544;2023-03-01T08:01:11;19.13;;;9.67;;
18376;SDS011;9315;52.624;13.544;2023-03-01T08:03:43;31.13;;;15.17;;
18376;SDS011;9315;52.624;13.544;2023-03-01T08:06:12;20.50;;;8.50;;
18376;SDS011;9315;52.624;13.544;2023-03-01T08:08:44;16.53;;;9.47;;
18376;SDS011;9315;52.624;13.544;2023-03-01T08:11:14;18.23;;;8.53;;
18376;SDS011;9315;52.624;13.544;2023-03-01T08:13:42;14.93;;;7.30;;
18376;SDS011;9315;52.624;13.544;2023-03-01T08:16:12;16.50;;;7.30;;
18376;SDS011;9315;52.624;13.544;2023-03-01T08:18:42;16.60;;;7.90;;
18376;SDS011;9315;52.624;13.544;2023-03-01T08:21:11;22.67;;;9.37;;
18376;SDS011;9315;52.624;13.544;2023-03-01T08:23:43;20.47;;;9.50;;
18376;SDS011;9315;52.624;13.544;2023-03-01T08:26:14;15.73;;;7.60;;
18376;SDS011;9315;52.624;13.544;2023-03-01T08:28:46;14.53;;;7.03;;
18376;SDS011;9315;52.624;13.544;2023-03-01T08:31:17;14.20;;;7.10;;
18376;SDS011;9315;52.624;13.544;2023-03-01T08:34:07;18.87;;;7.80;;
18376;SDS011;9315;52.624;13.544;2023-03-01T08:36:41;18.07;;;7.23;;
18376;SDS011;9315;52.624;13.544;2023-03-01T08:39:14;19.97;;;7.63;;
18376;SDS011;9315;52.624;13.544;2023-03-01T08:41:45;15.87;;;7.30;;
18376;SDS011;9315;52.624;13.544;2023-03-01T08:44:14;17.13;;;6.67;;
18376;SDS011;9315;52.624;13.544;2023-03-01T08:46:47;15.23;;;6.77;;
18376;SDS011;9315;52.624;13.544;2023-03-01T08:49:18;14.77;;;6.57;;
18376;SDS011;9315;52.624;13.544;2023-03-01T08:51:50;17.17;;;7.70;;
18376;SDS011;9315;52.624;13.544;2023-03-01T08:54:21;18.03;;;6.87;;
18376;SDS011;9315;52.624;13.544;2023-03-01T08:56:49;14.80;;;7.50;;
18376;SDS011;9315;52.624;13.544;2023-03-01T08:59:17;14.80;;;6.87;;
18376;SDS011;9315;52.624;13.544;2023-03-01T09:01:48;12.70;;;5.30;;
18376;SDS011;9315;52.624;13.544;2023-03-01T09:04:16;13.10;;;5.67;;
18376;SDS011;9315;52.624;13.544;2023-03-01T09:06:44;14.47;;;5.23;;
18376;SDS011;9315;52.624;13.544;2023-03-01T09:09:13;15.83;;;5.87;;
18376;SDS011;9315;52.624;13.544;2023-03-01T09:11:44;16.67;;;5.53;;
18376;SDS011;9315;52.624;13.544;2023-03-01T09:14:14;12.50;;;5.33;;
18376;SDS011;9315;52.624;13.544;2023-03-01T09:16:42;15.60;;;6.27;;
18376;SDS011;9315;52.624;13.544;2023-03-01T09:19:10;13.83;;;5.27;;
18376;SDS011;9315;52.624;13.544;2023-03-01T09:21:39;12.13;;;4.90;;
18376;SDS011;9315;52.624;13.544;2023-03-01T09:24:14;10.03;;;4.50;;
18376;SDS011;9315;52.624;13.544;2023-03-01T09:26:42;8.07;;;4.10;;
18376;SDS011;9315;52.624;13.544;2023-03-01T09:29:15;9.03;;;4.43;;
18376;SDS011;9315;52.624;13.544;2023-03-01T09:31:44;13.63;;;3.80;;
18376;SDS011;9315;52.624;13.544;2023-03-01T09:34:12;12.23;;;3.53;;
18376;SDS011;9315;52.624;13.544;2023-03-01T09:36:46;5.90;;;2.83;;
18376;SDS011;9315;52.624;13.544;2023-03-01T09:39:14;6.30;;;2.77;;
18376;SDS011;9315;52.624;13.544;2023-03-01T09:47:26;9.17;;;2.90;;
18376;SDS011;9315;52.624;13.544;2023-03-01T09:50:05;10.97;;;1.80;;
18376;SDS011;9315;52.624;13.544;2023-03-01T09:53:05;5.80;;;1.87;;
18376;SDS011;9315;52.624;13.544;2023-03-01T09:55:43;5.53;;;2.10;;
18376;SDS011;9315;52.624;13.544;2023-03-01T09:58:35;7.77;;;2.10;;
18376;SDS011;9315;52.624;13.544;2023-03-01T10:04:52;6.53;;;2.43;;
18376;SDS011;9315;52.624;13.544;2023-03-01T10:10:43;5.33;;;2.00;;
18376;SDS011;9315;52.624;13.544;2023-03-01T10:13:20;6.83;;;1.87;;
18376;SDS011;9315;52.624;13.544;2023-03-01T10:16:14;5.00;;;2.13;;
18376;SDS011;9315;52.624;13.544;2023-03-01T10:18:55;8.40;;;2.30;;
18376;SDS011;9315;52.624;13.544;2023-03-01T10:21:29;8.30;;;2.70;;
18376;SDS011;9315;52.624;13.544;2023-03-01T10:24:14;4.53;;;2.23;;
18376;SDS011;9315;52.624;13.544;2023-03-01T10:26:57;6.13;;;2.03;;
18376;SDS011;9315;52.624;13.544;2023-03-01T10:29:34;6.00;;;2.27;;
18376;SDS011;9315;52.624;13.544;2023-03-01T10:32:19;6.27;;;2.20;;
18376;SDS011;9315;52.624;13.544;2023-03-01T10:34:51;5.40;;;2.20;;
18376;SDS011;9315;52.624;13.544;2023-03-01T10:37:19;6.47;;;2.13;;
18376;SDS011;9315;52.624;13.544;2023-03-01T10:39:58;7.07;;;2.13;;
18376;SDS011;9315;52.624;13.544;2023-03-01T10:42:37;11.17;;;3.00;;
18376;SDS011;9315;52.624;13.544;2023-03-01T10:50:44;7.43;;;2.70;;
18376;SDS011;9315;52.624;13.544;2023-03-01T10:53:20;4.43;;;2.30;;
18376;SDS011;9315;52.624;13.544;2023-03-01T10:56:12;5.80;;;2.50;;
18376;SDS011;9315;52.624;13.544;2023-03-01T10:58:59;5.00;;;2.00;;
18376;SDS011;9315;52.624;13.544;2023-03-01T11:01:33;6.07;;;2.23;;
18376;SDS011;9315;52.624;13.544;2023-03-01T11:06:39;6.80;;;2.10;;
18376;SDS011;9315;52.624;13.544;2023-03-01T11:09:21;2.97;;;1.90;;
18376;SDS011;9315;52.624;13.544;2023-03-01T11:11:55;6.87;;;2.60;;
18376;SDS011;9315;52.624;13.544;2023-03-01T11:14:27;3.80;;;2.10;;
18376;SDS011;9315;52.624;13.544;2023-03-01T11:17:15;4.90;;;1.90;;
18376;SDS011;9315;52.624;13.544;2023-03-01T11:20:40;4.77;;;2.10;;
18376;SDS011;9315;52.624;13.544;2023-03-01T11:23:07;4.00;;;1.90;;
18376;SDS011;9315;52.624;13.544;2023-03-01T11:25:46;4.83;;;2.20;;
18376;SDS011;9315;52.624;13.544;2023-03-01T11:28:33;4.20;;;2.17;;
18376;SDS011;9315;52.624;13.544;2023-03-01T11:31:07;7.43;;;2.67;;
18376;SDS011;9315;52.624;13.544;2023-03-01T11:34:17;6.00;;;2.10;;
18376;SDS011;9315;52.624;13.544;2023-03-01T11:36:49;3.80;;;1.93;;
18376;SDS011;9315;52.624;13.544;2023-03-01T11:43:11;11.57;;;2.90;;
18376;SDS011;9315;52.624;13.544;2023-03-01T11:49:10;6.67;;;2.30;;
18376;SDS011;9315;52.624;13.544;2023-03-01T11:52:30;5.90;;;2.57;;
18376;SDS011;9315;52.624;13.544;2023-03-01T12:01:13;6.47;;;2.37;;
18376;SDS011;9315;52.624;13.544;2023-03-01T12:11:11;4.13;;;2.00;;
18376;SDS011;9315;52.624;13.544;2023-03-01T12:24:00;4.37;;;2.40;;
18376;SDS011;9315;52.624;13.544;2023-03-01T12:27:16;5.43;;;1.90;;
18376;SDS011;9315;52.624;13.544;2023-03-01T12:33:58;5.50;;;2.03;;
18376;SDS011;9315;52.624;13.544;2023-03-01T12:43:09;6.53;;;2.40;;
18376;SDS011;9315;52.624;13.544;2023-03-01T12:49:21;3.07;;;1.60;;
18376;SDS011;9315;52.624;13.544;2023-03-01T12:52:02;4.30;;;2.00;;
18376;SDS011;9315;52.624;13.544;2023-03-01T12:54:51;11.13;;;2.20;;
18376;SDS011;9315;52.624;13.544;2023-03-01T12:57:29;5.70;;;2.20;;
18376;SDS011;9315;52.624;13.544;2023-03-01T13:00:32;5.73;;;1.60;;
18376;SDS011;9315;52.624;13.544;2023-03-01T13:07:49;5.47;;;1.90;;
18376;SDS011;9315;52.624;13.544;2023-03-01T13:11:05;5.70;;;2.17;;
18376;SDS011;9315;52.624;13.544;2023-03-01T13:13:50;2.77;;;1.90;;
18376;SDS011;9315;52.624;13.544;2023-03-01T13:16:40;3.43;;;1.80;;
18376;SDS011;9315;52.624;13.544;2023-03-01T13:19:16;12.60;;;4.43;;
18376;SDS011;9315;52.624;13.544;2023-03-01T13:22:25;5.93;;;2.00;;
18376;SDS011;9315;52.624;13.544;2023-03-01T13:25:15;2.97;;;1.73;;
18376;SDS011;9315;52.624;13.544;2023-03-01T13:27:46;4.70;;;2.27;;
18376;SDS011;9315;52.624;13.544;2023-03-01T13:35:57;5.37;;;1.80;;
18376;SDS011;9315;52.624;13.544;2023-03-01T13:44:18;4.30;;;2.00;;
18376;SDS011;9315;52.624;13.544;2023-03-01T13:46:56;7.23;;;2.33;;
18376;SDS011;9315;52.624;13.544;2023-03-01T13:55:36;2.70;;;1.47;;
18376;SDS011;9315;52.624;13.544;2023-03-01T13:58:27;2.63;;;1.50;;
18376;SDS011;9315;52.624;13.544;2023-03-01T14:01:04;3.93;;;1.80;;
18376;SDS011;9315;52.624;13.544;2023-03-01T14:03:40;3.07;;;1.70;;
18376;SDS011;9315;52.624;13.544;2023-03-01T14:06:14;3.03;;;1.60;;
18376;SDS011;9315;52.624;13.544;2023-03-01T14:15:14;4.30;;;1.53;;
18376;SDS011;9315;52.624;13.544;2023-03-01T14:18:18;3.23;;;1.60;;
18376;SDS011;9315;52.624;13.544;2023-03-01T14:21:22;2.60;;;1.50;;
18376;SDS011;9315;52.624;13.544;2023-03-01T14:23:52;3.37;;;1.60;;
18376;SDS011;9315;52.624;13.544;2023-03-01T14:26:21;2.73;;;1.53;;
18376;SDS011;9315;52.624;13.544;2023-03-01T14:28:50;2.43;;;1.93;;
18376;SDS011;9315;52.624;13.544;2023-03-01T14:31:32;3.83;;;1.70;;
18376;SDS011;9315;52.624;13.544;2023-03-01T14:34:23;4.47;;;1.50;;
18376;SDS011;9315;52.624;13.544;2023-03-01T14:36:55;3.07;;;1.43;;
18376;SDS011;9315;52.624;13.544;2023-03-01T14:39:29;3.50;;;1.40;;
18376;SDS011;9315;52.624;13.544;2023-03-01T14:42:02;3.63;;;1.50;;
18376;SDS011;9315;52.624;13.544;2023-03-01T14:44:43;7.03;;;1.53;;
18376;SDS011;9315;52.624;13.544;2023-03-01T14:50:25;4.20;;;1.90;;
18376;SDS011;9315;52.624;13.544;2023-03-01T14:53:06;9.33;;;3.10;;
18376;SDS011;9315;52.624;13.544;2023-03-01T14:55:52;14.23;;;9.57;;
18376;SDS011;9315;52.624;13.544;2023-03-01T14:58:31;10.80;;;6.47;;
18376;SDS011;9315;52.624;13.544;2023-03-01T15:01:02;3.17;;;2.20;;
18376;SDS011;9315;52.624;13.544;2023-03-01T15:03:53;4.70;;;3.20;;
18376;SDS011;9315;52.624;13.544;2023-03-01T15:06:26;4.30;;;2.05;;
18376;SDS011;9315;52.624;13.544;2023-03-01T15:08:59;7.05;;;2.10;;
18376;SDS011;9315;52.624;13.544;2023-03-01T15:11:31;4.50;;;1.70;;
18376;SDS011;9315;52.624;13.544;2023-03-01T15:14:00;4.78;;;1.70;;
18376;SDS011;9315;52.624;13.544;2023-03-01T15:16:51;5.40;;;2.50;;
18376;SDS011;9315;52.624;13.544;2023-03-01T15:19:33;3.20;;;1.95;;
18376;SDS011;9315;52.624;13.544;2023-03-01T15:22:14;6.37;;;2.33;;
18376;SDS011;9315;52.624;13.544;2023-03-01T15:24:53;3.20;;;2.37;;
18376;SDS011;9315;52.624;13.544;2023-03-01T15:27:49;4.53;;;1.95;;
18376;SDS011;9315;52.624;13.544;2023-03-01T15:30:31;5.07;;;2.30;;
18376;SDS011;9315;52.624;13.544;2023-03-01T15:34:10;4.73;;;2.00;;
18376;SDS011;9315;52.624;13.544;2023-03-01T15:36:57;4.43;;;2.05;;
18376;SDS011;9315;52.624;13.544;2023-03-01T15:42:08;9.03;;;2.50;;
18376;SDS011;9315;52.624;13.544;2023-03-01T15:48:02;7.93;;;2.23;;
18376;SDS011;9315;52.624;13.544;2023-03-01T15:50:53;5.27;;;2.20;;
18376;SDS011;9315;52.624;13.544;2023-03-01T15:53:26;6.63;;;2.50;;
18376;SDS011;9315;52.624;13.544;2023-03-01T15:55:55;5.13;;;2.40;;
18376;SDS011;9315;52.624;13.544;2023-03-01T15:58:24;5.07;;;2.10;;
18376;SDS011;9315;52.624;13.544;2023-03-01T16:00:53;4.87;;;2.30;;
18376;SDS011;9315;52.624;13.544;2023-03-01T16:03:28;6.37;;;2.50;;
18376;SDS011;9315;52.624;13.544;2023-03-01T16:05:56;6.90;;;4.10;;
18376;SDS011;9315;52.624;13.544;2023-03-01T16:08:24;5.70;;;2.40;;
18376;SDS011;9315;52.624;13.544;2023-03-01T16:10:52;4.57;;;2.13;;
18376;SDS011;9315;52.624;13.544;2023-03-01T16:13:21;8.27;;;2.20;;
18376;SDS011;9315;52.624;13.544;2023-03-01T16:15:49;4.93;;;2.10;;
18376;SDS011;9315;52.624;13.544;2023-03-01T16:18:18;4.97;;;2.67;;
18376;SDS011;9315;52.624;13.544;2023-03-01T16:20:46;5.97;;;2.57;;
18376;SDS011;9315;52.624;13.544;2023-03-01T16:23:15;4.43;;;2.17;;
18376;SDS011;9315;52.624;13.544;2023-03-01T16:25:43;5.20;;;2.23;;
18376;SDS011;9315;52.624;13.544;2023-03-01T16:28:11;8.60;;;2.47;;
18376;SDS011;9315;52.624;13.544;2023-03-01T16:30:39;7.90;;;2.93;;
18376;SDS011;9315;52.624;13.544;2023-03-01T16:33:07;4.77;;;2.63;;
18376;SDS011;9315;52.624;13.544;2023-03-01T16:35:55;5.97;;;2.63;;
18376;SDS011;9315;52.624;13.544;2023-03-01T16:38:25;4.77;;;2.43;;
18376;SDS011;9315;52.624;13.544;2023-03-01T16:40:53;4.23;;;2.33;;
18376;SDS011;9315;52.624;13.544;2023-03-01T16:43:21;6.73;;;2.50;;
18376;SDS011;9315;52.624;13.544;2023-03-01T16:45:50;7.80;;;2.70;;
18376;SDS011;9315;52.624;13.544;2023-03-01T16:48:18;8.03;;;2.90;;
18376;SDS011;9315;52.624;13.544;2023-03-01T16:50:55;5.53;;;2.70;;
18376;SDS011;9315;52.624;13.544;2023-03-01T16:53:31;6.13;;;2.97;;
18376;SDS011;9315;52.624;13.544;2023-03-01T16:56:00;8.43;;;2.60;;
18376;SDS011;9315;52.624;13.544;2023-03-01T16:58:30;5.17;;;2.50;;
18376;SDS011;9315;52.624;13.544;2023-03-01T17:01:03;6.23;;;2.90;;
18376;SDS011;9315;52.624;13.544;2023-03-01T17:03:43;6.20;;;2.50;;
18376;SDS011;9315;52.624;13.544;2023-03-01T17:06:14;7.57;;;2.60;;
18376;SDS011;9315;52.624;13.544;2023-03-01T17:08:47;7.67;;;2.80;;
18376;SDS011;9315;52.624;13.544;2023-03-01T17:11:16;8.43;;;3.03;;
18376;SDS011;9315;52.624;13.544;2023-03-01T17:13:49;18.47;;;3.37;;